createdAt,value
2023-02-14T00:02:57.176Z,5.40
2023-02-14T00:08:00.355Z,5.30
2023-02-14T00:13:03.883Z,5.30
2023-02-14T00:18:08.441Z,5.30
2023-02-14T00:23:11.786Z,5.40
2023-02-14T00:28:15.077Z,5.30
2023-02-14T00:33:19.563Z,5.30
2023-02-14T00:38:22.745Z,5.20
2023-02-14T00:43:26.124Z,5.20
2023-02-14T00:48:30.778Z,5.20
2023-02-14T00:53:34.048Z,5.20
2023-02-14T00:58:37.294Z,5.10
2023-02-14T01:03:42.103Z,5.10
2023-02-14T01:08:45.371Z,5.10
2023-02-14T01:13:50.163Z,5.10
2023-02-14T01:18:55.107Z,5.10
2023-02-14T01:24:00.074Z,5.10
2023-02-14T01:29:05.166Z,5.10
2023-02-14T01:34:10.614Z,5.10
2023-02-14T01:39:15.351Z,5.10
2023-02-14T01:44:57.979Z,5.00
2023-02-14T01:50:07.352Z,5.10
2023-02-14T01:55:15.276Z,5.10
2023-02-14T02:00:39.183Z,5.00
2023-02-14T02:05:48.796Z,5.10
2023-02-14T02:10:52.968Z,5.00
2023-02-14T02:16:11.300Z,5.10
2023-02-14T02:21:57.369Z,5.10
2023-02-14T02:27:25.982Z,5.10
2023-02-14T02:32:59.092Z,5.00
2023-02-14T02:38:20.206Z,5.00
2023-02-14T02:43:36.977Z,4.90
2023-02-14T02:48:43.953Z,4.90
2023-02-14T02:53:52.995Z,4.90
2023-02-14T02:59:00.917Z,4.90
2023-02-14T03:04:28.937Z,4.90
2023-02-14T03:09:54.654Z,4.90
2023-02-14T03:15:06.877Z,5.00
2023-02-14T03:20:16.861Z,5.00
2023-02-14T03:25:42.660Z,4.90
2023-02-14T03:30:57.845Z,5.00
2023-02-14T03:36:06.788Z,5.00
2023-02-14T03:41:15.227Z,4.90
2023-02-14T03:46:22.875Z,4.90
2023-02-14T03:51:27.979Z,4.90
2023-02-14T03:56:38.406Z,5.00
2023-02-14T04:01:48.537Z,5.00
2023-02-14T04:06:51.981Z,5.00
2023-02-14T04:11:56.433Z,5.00
2023-02-14T04:17:18.377Z,4.90
2023-02-14T04:22:22.157Z,4.90
2023-02-14T04:27:26.960Z,4.80
2023-02-14T04:32:30.062Z,4.90
2023-02-14T04:37:33.673Z,4.90
2023-02-14T04:42:38.214Z,4.80
2023-02-14T04:47:41.503Z,4.80
2023-02-14T04:52:44.701Z,4.80
2023-02-14T04:57:49.160Z,4.80
2023-02-14T05:02:52.289Z,4.90
2023-02-14T05:07:55.451Z,4.80
2023-02-14T05:13:01.007Z,4.90
2023-02-14T05:18:05.744Z,4.90
2023-02-14T05:23:13.681Z,4.80
2023-02-14T05:28:19.202Z,4.80
2023-02-14T05:33:22.538Z,4.80
2023-02-14T05:38:25.744Z,4.80
2023-02-14T05:43:30.465Z,4.90
2023-02-14T05:48:34.819Z,4.90
2023-02-14T05:53:38.563Z,4.90
2023-02-14T05:58:43.895Z,4.80
2023-02-14T06:03:47.395Z,4.80
2023-02-14T06:08:50.608Z,4.80
2023-02-14T06:13:55.563Z,4.80
2023-02-14T06:18:58.794Z,4.80
2023-02-14T06:24:02.134Z,4.80
2023-02-14T06:29:06.806Z,4.80
2023-02-14T06:34:10.743Z,4.80
2023-02-14T06:39:14.055Z,4.90
2023-02-14T06:44:18.607Z,4.90
2023-02-14T06:49:21.783Z,4.90
2023-02-14T06:54:25.287Z,4.90
2023-02-14T06:59:29.672Z,4.90
2023-02-14T07:04:33.303Z,5.00
2023-02-14T07:09:40.982Z,5.10
2023-02-14T07:14:47.430Z,5.10
2023-02-14T07:19:52.192Z,5.20
2023-02-14T07:24:56.537Z,5.30
2023-02-14T07:30:01.570Z,5.30
2023-02-14T07:35:06.648Z,5.30
2023-02-14T07:40:15.042Z,5.40
2023-02-14T07:45:22.288Z,5.50
2023-02-14T07:50:26.146Z,5.70
2023-02-14T07:55:29.701Z,5.70
2023-02-14T08:00:35.032Z,5.80
2023-02-14T08:05:38.455Z,6.00
2023-02-14T08:10:45.331Z,6.20
2023-02-14T08:16:06.216Z,6.30
2023-02-14T08:21:11.846Z,6.50
2023-02-14T08:26:15.845Z,6.70
2023-02-14T08:31:35.271Z,6.60
2023-02-14T08:36:39.923Z,6.40
2023-02-14T08:41:44.267Z,6.40
2023-02-14T08:46:49.370Z,6.70
2023-02-14T08:51:54.543Z,7.00
2023-02-14T08:56:58.046Z,6.90
2023-02-14T09:02:02.744Z,6.80
2023-02-14T09:07:06.245Z,6.90
2023-02-14T09:12:11.782Z,6.90
2023-02-14T09:17:16.858Z,7.20
2023-02-14T09:22:21.141Z,7.20
2023-02-14T09:27:24.836Z,7.30
2023-02-14T09:32:29.600Z,7.40
2023-02-14T09:37:52.114Z,7.70
2023-02-14T09:43:02.837Z,7.50
2023-02-14T09:48:15.170Z,7.30
2023-02-14T09:53:25.554Z,7.20
2023-02-14T09:58:35.783Z,7.30
2023-02-14T10:04:03.072Z,7.30
2023-02-14T10:09:13.998Z,7.20
2023-02-14T10:14:20.349Z,7.50
2023-02-14T10:19:31.816Z,7.40
2023-02-14T10:24:40.237Z,7.40
2023-02-14T10:29:43.522Z,7.80
2023-02-14T10:34:50.318Z,7.80
2023-02-14T10:40:09.126Z,7.60
2023-02-14T10:45:22.697Z,7.70
2023-02-14T10:50:37.200Z,7.70
2023-02-14T10:55:49.080Z,8.20
2023-02-14T11:00:59.207Z,8.30
2023-02-14T11:06:04.261Z,8.00
2023-02-14T11:11:17.058Z,8.30
2023-02-14T11:16:30.395Z,8.50
2023-02-14T11:21:39.967Z,8.60
2023-02-14T11:26:46.678Z,8.70
2023-02-14T11:31:50.518Z,8.50
2023-02-14T11:36:55.865Z,8.40
2023-02-14T11:42:01.501Z,8.40
2023-02-14T11:47:18.813Z,8.00
2023-02-14T11:52:29.005Z,8.20
2023-02-14T11:57:35.491Z,8.30
2023-02-14T12:02:42.051Z,8.30
2023-02-14T12:07:50.721Z,8.60
2023-02-14T12:13:01.088Z,8.80
2023-02-14T12:18:38.395Z,8.40
2023-02-14T12:23:47.626Z,8.20
2023-02-14T12:28:58.329Z,8.00
2023-02-14T12:34:03.574Z,8.20
2023-02-14T12:39:18.324Z,8.10
2023-02-14T12:44:34.108Z,8.50
2023-02-14T12:50:15.553Z,8.60
2023-02-14T12:55:36.111Z,8.80
2023-02-14T13:00:50.351Z,9.00
2023-02-14T13:06:00.418Z,8.90
2023-02-14T13:11:19.689Z,9.10
2023-02-14T13:16:30.401Z,9.00
2023-02-14T13:21:37.507Z,9.20
2023-02-14T13:26:45.588Z,9.10
2023-02-14T13:31:51.162Z,9.00
2023-02-14T13:36:56.480Z,8.90
2023-02-14T13:42:01.307Z,8.50
2023-02-14T13:47:05.964Z,8.40
2023-02-14T13:52:10.123Z,8.30
2023-02-14T13:57:35.005Z,8.40
2023-02-14T14:02:44.768Z,8.40
2023-02-14T14:07:58.802Z,8.40
2023-02-14T14:13:03.899Z,8.60
2023-02-14T14:18:26.358Z,8.40
2023-02-14T14:23:35.172Z,8.40
2023-02-14T14:28:40.229Z,8.00
2023-02-14T14:33:44.310Z,8.00
2023-02-14T14:38:51.042Z,7.70
2023-02-14T14:43:56.956Z,7.90
2023-02-14T14:49:02.394Z,7.90
2023-02-14T14:54:13.508Z,8.00
2023-02-14T14:59:26.812Z,8.00
2023-02-14T15:04:32.568Z,7.80
2023-02-14T15:09:36.346Z,7.60
2023-02-14T15:14:46.385Z,7.60
2023-02-14T15:19:54.311Z,7.50
2023-02-14T15:24:58.354Z,7.40
2023-02-14T15:30:08.911Z,7.40
2023-02-14T15:35:16.377Z,7.10
2023-02-14T15:40:24.248Z,7.00
2023-02-14T15:45:31.595Z,7.00
2023-02-14T15:50:42.133Z,7.00
2023-02-14T15:55:48.463Z,6.90
2023-02-14T16:00:54.233Z,6.80
2023-02-14T16:05:58.386Z,6.70
2023-02-14T16:11:05.196Z,6.60
2023-02-14T16:16:12.277Z,6.40
2023-02-14T16:21:20.066Z,6.40
2023-02-14T16:26:24.167Z,6.50
2023-02-14T16:31:29.232Z,6.50
2023-02-14T16:36:33.755Z,6.40
2023-02-14T16:41:41.966Z,6.30
2023-02-14T16:46:48.506Z,6.30
2023-02-14T16:51:52.033Z,6.30
2023-02-14T16:56:59.884Z,6.20
2023-02-14T17:02:05.543Z,6.20
2023-02-14T17:07:15.850Z,6.20
2023-02-14T17:12:24.737Z,6.10
2023-02-14T17:17:30.461Z,6.10
2023-02-14T17:22:34.484Z,6.00
2023-02-14T17:27:38.578Z,6.10
2023-02-14T17:32:44.336Z,5.90
2023-02-14T17:37:47.867Z,5.80
2023-02-14T17:42:51.656Z,5.80
2023-02-14T17:47:56.457Z,5.80
2023-02-14T17:52:59.829Z,5.70
2023-02-14T17:58:03.777Z,5.70
2023-02-14T18:03:08.937Z,5.70
2023-02-14T18:08:12.655Z,5.70
2023-02-14T18:13:16.433Z,5.60
2023-02-14T18:18:21.386Z,5.50
2023-02-14T18:23:25.542Z,5.60
2023-02-14T18:28:28.953Z,5.50
2023-02-14T18:33:34.187Z,5.40
2023-02-14T18:38:38.170Z,5.60
2023-02-14T18:43:42.259Z,5.50
2023-02-14T18:48:47.281Z,5.60
2023-02-14T18:53:54.907Z,5.40
2023-02-14T18:59:00.735Z,5.40
2023-02-14T19:04:08.561Z,5.40
2023-02-14T19:09:14.808Z,5.10
2023-02-14T19:14:19.026Z,5.10
2023-02-14T19:19:24.045Z,5.10
2023-02-14T19:24:27.935Z,5.00
2023-02-14T19:29:32.472Z,5.00
2023-02-14T19:34:38.472Z,5.10
2023-02-14T19:39:42.324Z,5.20
2023-02-14T19:44:47.417Z,5.10
2023-02-14T19:49:52.592Z,5.10
2023-02-14T19:54:57.110Z,5.00
2023-02-14T20:00:00.896Z,4.80
2023-02-14T20:05:06.819Z,4.50
2023-02-14T20:10:12.068Z,4.30
2023-02-14T20:15:16.153Z,4.50
2023-02-14T20:20:21.741Z,4.20
2023-02-14T20:25:25.224Z,4.00
2023-02-14T20:30:28.901Z,3.70
2023-02-14T20:35:38.398Z,3.60
2023-02-14T20:40:43.398Z,3.20
2023-02-14T20:45:46.962Z,3.10
2023-02-14T20:50:52.202Z,2.90
2023-02-14T20:55:55.604Z,2.70
2023-02-14T21:01:06.045Z,2.60
2023-02-14T21:06:13.182Z,2.50
2023-02-14T21:11:19.943Z,2.30
2023-02-14T21:16:24.104Z,2.30
2023-02-14T21:21:34.041Z,2.20
2023-02-14T21:26:39.071Z,2.20
2023-02-14T21:31:43.106Z,2.20
2023-02-14T21:36:48.390Z,2.10
2023-02-14T21:41:52.346Z,2.20
2023-02-14T21:46:56.093Z,2.10
2023-02-14T21:52:01.947Z,2.10
2023-02-14T21:57:05.919Z,2.10
2023-02-14T22:02:11.610Z,2.00
2023-02-14T22:07:17.004Z,1.80
2023-02-14T22:12:21.062Z,1.80
2023-02-14T22:17:24.662Z,1.90
2023-02-14T22:22:29.433Z,2.00
2023-02-14T22:27:38.415Z,2.20
2023-02-14T22:32:42.468Z,2.20
2023-02-14T22:37:48.043Z,2.10
2023-02-14T22:42:51.443Z,1.70
2023-02-14T22:47:55.457Z,1.30
2023-02-14T22:53:00.987Z,1.10
2023-02-14T22:58:05.493Z,0.90
2023-02-14T23:03:09.584Z,0.70
2023-02-14T23:08:14.851Z,0.60
2023-02-14T23:13:37.408Z,0.40
2023-02-14T23:19:04.340Z,0.30
2023-02-14T23:24:10.250Z,0.30
2023-02-14T23:29:12.492Z,0.20
2023-02-14T23:34:17.614Z,0.00
2023-02-14T23:39:23.861Z,0.00
2023-02-14T23:44:30.276Z,0.00
2023-02-14T23:49:36.390Z,-0.10
2023-02-14T23:54:41.668Z,-0.20
2023-02-14T23:59:45.663Z,-0.30
